createdAt,value
2019-06-01T00:00:10.307Z,85.30
2019-06-01T00:02:28.133Z,84.40
2019-06-01T00:04:58.498Z,86.40
2019-06-01T00:07:29.050Z,86.10
2019-06-01T00:09:59.382Z,86.30
2019-06-01T00:12:29.481Z,85.90
2019-06-01T00:14:59.705Z,86.60
2019-06-01T00:17:29.853Z,84.70
2019-06-01T00:19:59.999Z,86.90
2019-06-01T00:22:30.247Z,86.30
2019-06-01T00:25:00.748Z,88.20
2019-06-01T00:27:31.398Z,88.70
2019-06-01T00:30:02.335Z,87.40
2019-06-01T00:32:33.117Z,87.00
2019-06-01T00:35:03.761Z,86.10
2019-06-01T00:37:33.928Z,87.00
2019-06-01T00:40:04.834Z,86.30
2019-06-01T00:42:35.187Z,86.40
2019-06-01T00:45:06.415Z,87.60
2019-06-01T00:47:37.042Z,87.50
2019-06-01T00:50:08.404Z,88.30
2019-06-01T00:52:38.607Z,88.70
2019-06-01T00:55:08.990Z,87.30
2019-06-01T00:57:39.192Z,86.10
2019-06-01T01:00:12.883Z,88.60
2019-06-01T01:02:44.019Z,88.70
2019-06-01T01:05:18.584Z,87.10
2019-06-01T01:07:48.890Z,86.90
2019-06-01T01:10:20.481Z,87.60
2019-06-01T01:13:08.568Z,88.70
2019-06-01T01:15:38.871Z,86.80
2019-06-01T01:18:09.814Z,87.80
2019-06-01T01:20:40.196Z,88.00
2019-06-01T01:23:10.508Z,88.50
2019-06-01T01:25:40.690Z,88.10
2019-06-01T01:28:10.976Z,89.10
2019-06-01T01:30:41.947Z,87.80
2019-06-01T01:33:12.134Z,87.90
2019-06-01T01:35:42.500Z,86.00
2019-06-01T01:38:12.872Z,88.10
2019-06-01T01:40:43.614Z,87.50
2019-06-01T01:43:13.980Z,89.70
2019-06-01T01:45:44.612Z,90.00
2019-06-01T01:48:14.852Z,90.20
2019-06-01T01:50:45.067Z,90.50
2019-06-01T01:53:15.521Z,90.30
2019-06-01T01:55:46.086Z,89.90
2019-06-01T01:58:16.819Z,88.60
2019-06-01T02:00:48.795Z,90.00
2019-06-01T02:03:19.112Z,90.10
2019-06-01T02:05:50.670Z,90.20
2019-06-01T02:08:21.252Z,90.20
2019-06-01T02:10:51.499Z,90.00
2019-06-01T02:13:21.952Z,89.50
2019-06-01T02:15:52.357Z,89.90
2019-06-01T02:18:23.242Z,90.30
2019-06-01T02:20:54.387Z,89.00
2019-06-01T02:23:25.075Z,90.10
2019-06-01T02:25:55.250Z,90.50
2019-06-01T02:28:25.459Z,90.10
2019-06-01T02:30:56.156Z,90.40
2019-06-01T02:33:26.911Z,90.50
2019-06-01T02:35:58.083Z,90.10
2019-06-01T02:38:28.936Z,89.20
2019-06-01T02:41:01.023Z,88.00
2019-06-01T02:43:30.810Z,88.80
2019-06-01T02:46:02.768Z,89.10
2019-06-01T02:48:33.661Z,88.30
2019-06-01T02:51:04.047Z,88.80
2019-06-01T02:53:34.336Z,89.40
2019-06-01T02:56:06.098Z,90.60
2019-06-01T02:58:36.931Z,90.30
2019-06-01T03:01:56.867Z,90.50
2019-06-01T03:04:17.908Z,90.70
2019-06-01T03:06:50.703Z,90.40
2019-06-01T03:09:22.556Z,90.10
2019-06-01T03:11:55.506Z,90.10
2019-06-01T03:14:28.560Z,90.50
2019-06-01T03:17:01.890Z,90.40
2019-06-01T03:19:34.561Z,91.10
2019-06-01T03:22:08.639Z,90.90
2019-06-01T03:24:39.156Z,90.90
2019-06-01T03:27:12.622Z,91.10
2019-06-01T03:29:45.796Z,91.30
2019-06-01T03:32:34.075Z,91.00
2019-06-01T03:34:49.297Z,90.70
2019-06-01T03:37:19.630Z,90.40
2019-06-01T03:39:50.308Z,90.00
2019-06-01T03:42:20.594Z,89.30
2019-06-01T03:44:50.866Z,89.90
2019-06-01T03:47:21.322Z,90.20
2019-06-01T03:49:51.666Z,90.50
2019-06-01T03:52:21.938Z,89.80
2019-06-01T03:54:52.342Z,89.70
2019-06-01T03:57:22.607Z,89.30
2019-06-01T03:59:52.865Z,90.20
2019-06-01T04:02:32.653Z,89.10
2019-06-01T04:04:55.038Z,90.20
2019-06-01T04:07:25.178Z,90.20
2019-06-01T04:09:55.588Z,90.40
2019-06-01T04:12:27.220Z,90.20
2019-06-01T04:14:57.370Z,90.00
2019-06-01T04:17:27.960Z,90.10
2019-06-01T04:19:58.364Z,89.90
2019-06-01T04:22:28.479Z,90.20
2019-06-01T04:24:58.773Z,90.30
2019-06-01T04:27:29.470Z,90.30
2019-06-01T04:29:59.786Z,89.60
2019-06-01T04:32:30.047Z,88.00
2019-06-01T04:35:01.163Z,90.30
2019-06-01T04:37:31.446Z,89.90
2019-06-01T04:40:01.828Z,89.40
2019-06-01T04:42:32.086Z,90.10
2019-06-01T04:45:04.307Z,88.80
2019-06-01T04:47:34.477Z,89.90
2019-06-01T04:50:06.593Z,89.90
2019-06-01T04:52:36.962Z,89.40
2019-06-01T04:55:08.972Z,90.00
2019-06-01T04:57:39.309Z,90.00
2019-06-01T05:00:24.034Z,90.00
2019-06-01T05:02:42.180Z,90.00
2019-06-01T05:05:13.376Z,89.40
2019-06-01T05:07:43.699Z,90.00
2019-06-01T05:10:16.003Z,89.60
2019-06-01T05:12:47.279Z,89.70
2019-06-01T05:15:17.855Z,89.20
2019-06-01T05:17:48.193Z,89.30
2019-06-01T05:20:19.847Z,88.90
2019-06-01T05:22:50.032Z,90.00
2019-06-01T05:25:20.350Z,89.00
2019-06-01T05:27:50.779Z,88.30
2019-06-01T05:30:21.337Z,88.80
2019-06-01T05:32:51.946Z,88.10
2019-06-01T05:35:24.037Z,87.40
2019-06-01T05:37:56.017Z,86.20
2019-06-01T05:40:26.506Z,84.10
2019-06-01T05:42:57.789Z,83.80
2019-06-01T05:45:28.099Z,84.00
2019-06-01T05:47:58.558Z,82.60
2019-06-01T05:50:30.002Z,82.60
2019-06-01T05:53:00.468Z,82.10
2019-06-01T05:55:31.707Z,80.40
2019-06-01T05:58:02.884Z,80.50
2019-06-01T06:00:40.225Z,80.50
2019-06-01T06:03:12.805Z,81.30
2019-06-01T06:05:42.894Z,79.90
2019-06-01T06:08:14.314Z,79.80
2019-06-01T06:10:44.941Z,79.30
2019-06-01T06:13:15.436Z,78.70
2019-06-01T06:15:46.178Z,78.60
2019-06-01T06:18:17.768Z,78.50
2019-06-01T06:20:48.273Z,78.70
2019-06-01T06:23:18.629Z,75.80
2019-06-01T06:25:48.943Z,72.20
2019-06-01T06:28:20.795Z,69.10
2019-06-01T06:30:56.261Z,66.60
2019-06-01T06:33:26.693Z,64.10
2019-06-01T06:35:57.401Z,63.40
2019-06-01T06:38:27.714Z,60.50
2019-06-01T06:40:57.967Z,57.30
2019-06-01T06:43:32.882Z,55.70
2019-06-01T06:46:00.428Z,53.90
2019-06-01T06:48:30.685Z,52.70
2019-06-01T06:51:01.798Z,53.60
2019-06-01T06:53:35.247Z,51.60
2019-06-01T06:56:05.459Z,51.20
2019-06-01T06:58:36.936Z,51.30
2019-06-01T07:01:11.794Z,50.90
2019-06-01T07:03:39.523Z,50.50
2019-06-01T07:06:09.987Z,47.80
2019-06-01T07:08:40.422Z,47.40
2019-06-01T07:11:12.098Z,47.20
2019-06-01T07:13:43.150Z,48.70
2019-06-01T07:16:14.505Z,47.50
2019-06-01T07:18:45.274Z,47.60
2019-06-01T07:21:15.999Z,46.60
2019-06-01T07:23:46.165Z,45.40
2019-06-01T07:26:17.132Z,46.20
2019-06-01T07:28:47.480Z,46.70
2019-06-01T07:31:18.104Z,46.90
2019-06-01T07:33:49.091Z,47.30
2019-06-01T07:36:20.248Z,47.40
2019-06-01T07:38:50.857Z,46.00
2019-06-01T07:41:22.460Z,45.60
2019-06-01T07:43:52.787Z,45.60
2019-06-01T07:46:23.103Z,46.20
2019-06-01T07:48:53.518Z,46.10
2019-06-01T07:51:25.117Z,47.10
2019-06-01T07:53:55.708Z,46.60
2019-06-01T07:56:26.516Z,44.20
2019-06-01T07:58:57.109Z,45.60
2019-06-01T08:01:29.096Z,47.10
2019-06-01T08:03:59.282Z,47.60
2019-06-01T08:06:30.919Z,47.40
2019-06-01T08:09:01.474Z,47.00
2019-06-01T08:11:33.401Z,47.20
2019-06-01T08:14:04.185Z,48.10
2019-06-01T08:16:34.447Z,48.30
2019-06-01T08:19:04.871Z,49.10
2019-06-01T08:21:35.156Z,49.90
2019-06-01T08:24:05.651Z,50.30
2019-06-01T08:26:36.005Z,50.60
2019-06-01T08:29:06.759Z,49.80
2019-06-01T08:31:37.323Z,50.70
2019-06-01T08:34:08.013Z,50.20
2019-06-01T08:36:39.029Z,50.50
2019-06-01T08:39:09.467Z,50.90
2019-06-01T08:41:39.998Z,51.80
2019-06-01T08:44:10.898Z,51.70
2019-06-01T08:46:41.401Z,51.90
2019-06-01T08:49:12.104Z,52.00
2019-06-01T08:51:42.611Z,51.90
2019-06-01T08:54:12.883Z,52.50
2019-06-01T08:56:43.182Z,52.80
2019-06-01T08:59:13.771Z,52.00
2019-06-01T09:01:44.152Z,52.50
2019-06-01T09:04:14.349Z,52.60
2019-06-01T09:06:44.793Z,52.30
2019-06-01T09:09:15.122Z,52.20
2019-06-01T09:11:45.249Z,52.40
2019-06-01T09:14:15.680Z,52.60
2019-06-01T09:16:46.332Z,51.50
2019-06-01T09:19:16.612Z,51.80
2019-06-01T09:21:46.845Z,52.00
2019-06-01T09:24:17.412Z,52.60
2019-06-01T09:26:47.699Z,52.50
2019-06-01T09:29:18.532Z,51.80
2019-06-01T09:31:49.057Z,52.50
2019-06-01T09:34:19.325Z,52.40
2019-06-01T09:36:49.823Z,53.50
2019-06-01T09:39:20.744Z,54.10
2019-06-01T09:41:51.080Z,53.20
2019-06-01T09:44:21.532Z,53.50
2019-06-01T09:46:51.904Z,53.10
2019-06-01T09:49:22.120Z,53.80
2019-06-01T09:51:52.616Z,53.50
2019-06-01T09:54:23.351Z,53.90
2019-06-01T09:56:53.713Z,54.30
2019-06-01T09:59:24.094Z,53.10
2019-06-01T10:01:54.478Z,53.50
2019-06-01T10:04:25.012Z,53.40
2019-06-01T10:06:55.802Z,53.80
2019-06-01T10:09:26.203Z,54.00
2019-06-01T10:11:56.410Z,53.80
2019-06-01T10:14:26.557Z,54.40
2019-06-01T10:16:56.617Z,54.00
2019-06-01T10:19:27.984Z,54.00
2019-06-01T10:21:58.274Z,54.00
2019-06-01T10:24:28.757Z,54.10
2019-06-01T10:26:59.207Z,54.40
2019-06-01T10:29:30.510Z,55.10
2019-06-01T10:32:02.006Z,54.40
2019-06-01T10:34:33.536Z,54.30
2019-06-01T10:37:05.122Z,54.10
2019-06-01T10:39:35.711Z,53.80
2019-06-01T10:42:06.620Z,54.00
2019-06-01T10:44:41.505Z,54.00
2019-06-01T10:47:09.052Z,54.20
2019-06-01T10:49:40.105Z,54.40
2019-06-01T10:52:10.577Z,54.00
2019-06-01T10:54:40.840Z,53.80
2019-06-01T10:57:13.029Z,54.50
2019-06-01T10:59:43.821Z,55.00
2019-06-01T11:02:14.984Z,54.70
2019-06-01T11:05:08.536Z,54.40
2019-06-01T11:07:41.017Z,55.00
2019-06-01T11:10:14.412Z,54.80
2019-06-01T11:12:44.937Z,54.90
2019-06-01T11:15:17.069Z,54.30
2019-06-01T11:17:48.594Z,54.80
2019-06-01T11:20:19.080Z,55.30
2019-06-01T11:22:49.947Z,55.10
2019-06-01T11:25:20.531Z,54.20
2019-06-01T11:27:51.165Z,54.40
2019-06-01T11:30:21.740Z,54.80
2019-06-01T11:32:52.059Z,54.80
2019-06-01T11:35:22.643Z,53.10
2019-06-01T11:37:52.945Z,54.90
2019-06-01T11:40:23.667Z,54.60
2019-06-01T11:42:54.333Z,54.50
2019-06-01T11:45:24.594Z,54.30
2019-06-01T11:47:54.972Z,54.10
2019-06-01T11:50:25.396Z,53.50
2019-06-01T11:52:56.274Z,54.00
2019-06-01T11:55:26.584Z,53.80
2019-06-01T11:57:56.964Z,53.80
2019-06-01T12:00:27.625Z,54.20
2019-06-01T12:02:57.988Z,54.50
2019-06-01T12:05:28.381Z,54.20
2019-06-01T12:07:59.490Z,54.60
2019-06-01T12:10:29.761Z,54.50
2019-06-01T12:12:59.953Z,53.70
2019-06-01T12:15:30.276Z,54.30
2019-06-01T12:18:00.677Z,53.50
2019-06-01T12:20:31.355Z,53.60
2019-06-01T12:23:01.757Z,53.90
2019-06-01T12:25:32.038Z,53.80
2019-06-01T12:28:02.566Z,54.40
2019-06-01T12:30:32.747Z,54.60
2019-06-01T12:33:03.013Z,55.10
2019-06-01T12:35:34.755Z,54.80
2019-06-01T12:38:06.959Z,53.60
2019-06-01T12:40:37.024Z,53.30
2019-06-01T12:43:07.311Z,53.50
2019-06-01T12:45:37.495Z,54.00
2019-06-01T12:48:07.960Z,54.40
2019-06-01T12:50:39.882Z,54.30
2019-06-01T12:53:10.364Z,53.90
2019-06-01T12:55:41.110Z,53.70
2019-06-01T12:58:11.323Z,53.70
2019-06-01T13:00:42.049Z,53.40
2019-06-01T13:03:12.564Z,52.90
2019-06-01T13:05:43.580Z,53.10
2019-06-01T13:08:14.027Z,53.50
2019-06-01T13:10:45.122Z,53.70
2019-06-01T13:13:15.709Z,53.80
2019-06-01T13:15:45.832Z,53.80
2019-06-01T13:18:16.101Z,53.70
2019-06-01T13:20:47.658Z,53.00
2019-06-01T13:23:18.368Z,52.90
2019-06-01T13:25:49.662Z,52.90
2019-06-01T13:28:35.020Z,52.90
2019-06-01T13:30:52.971Z,53.50
2019-06-01T13:33:23.484Z,53.30
2019-06-01T13:35:54.436Z,52.60
2019-06-01T13:38:24.975Z,52.80
2019-06-01T13:40:55.496Z,53.30
2019-06-01T13:43:27.199Z,52.70
2019-06-01T13:45:58.312Z,53.00
2019-06-01T13:48:28.844Z,52.90
2019-06-01T13:50:59.150Z,53.30
2019-06-01T13:53:29.514Z,53.10
2019-06-01T13:55:59.678Z,53.30
2019-06-01T13:58:30.149Z,53.40
2019-06-01T14:01:01.191Z,53.00
2019-06-01T14:03:31.565Z,53.10
2019-06-01T14:06:01.683Z,53.60
2019-06-01T14:08:32.176Z,53.00
2019-06-01T14:11:02.496Z,53.10
2019-06-01T14:13:32.734Z,53.00
2019-06-01T14:16:03.482Z,52.30
2019-06-01T14:18:33.913Z,52.70
2019-06-01T14:21:04.225Z,52.60
2019-06-01T14:23:35.232Z,52.80
2019-06-01T14:26:05.677Z,52.60
2019-06-01T14:28:35.984Z,52.30
2019-06-01T14:31:06.715Z,52.20
2019-06-01T14:33:36.967Z,51.50
2019-06-01T14:36:07.416Z,50.90
2019-06-01T14:38:47.160Z,50.80
2019-06-01T14:41:09.801Z,51.20
2019-06-01T14:43:40.253Z,50.70
2019-06-01T14:46:10.632Z,49.90
2019-06-01T14:48:41.039Z,49.80
2019-06-01T14:51:11.409Z,48.80
2019-06-01T14:53:41.803Z,49.10
2019-06-01T14:56:12.602Z,49.00
2019-06-01T14:58:42.773Z,47.40
2019-06-01T15:01:28.931Z,47.50
2019-06-01T15:03:45.845Z,47.10
2019-06-01T15:06:19.982Z,48.00
2019-06-01T15:09:07.675Z,48.40
2019-06-01T15:11:20.197Z,48.00
2019-06-01T15:13:50.849Z,48.60
2019-06-01T15:16:21.165Z,48.10
2019-06-01T15:18:51.620Z,47.80
2019-06-01T15:21:22.264Z,48.50
2019-06-01T15:23:53.834Z,47.90
2019-06-01T15:26:24.496Z,48.30
2019-06-01T15:28:54.879Z,48.50
2019-06-01T15:31:25.995Z,48.30
2019-06-01T15:33:57.362Z,47.40
2019-06-01T15:36:27.845Z,47.80
2019-06-01T15:38:58.271Z,47.30
2019-06-01T15:41:28.638Z,47.30
2019-06-01T15:43:59.162Z,46.80
2019-06-01T15:46:29.488Z,47.70
2019-06-01T15:49:00.123Z,48.20
2019-06-01T15:51:30.787Z,48.40
2019-06-01T15:54:01.279Z,48.20
2019-06-01T15:56:32.747Z,48.20
2019-06-01T15:59:03.228Z,47.90
2019-06-01T16:01:34.039Z,48.10
2019-06-01T16:04:05.181Z,48.20
2019-06-01T16:06:35.640Z,48.20
2019-06-01T16:09:09.377Z,48.40
2019-06-01T16:11:40.860Z,48.70
2019-06-01T16:14:11.155Z,49.00
2019-06-01T16:16:41.546Z,48.70
2019-06-01T16:19:12.072Z,48.30
2019-06-01T16:21:43.464Z,48.40
2019-06-01T16:24:16.161Z,48.40
2019-06-01T16:26:46.881Z,48.70
2019-06-01T16:29:17.676Z,48.70
2019-06-01T16:31:48.331Z,48.70
2019-06-01T16:34:18.764Z,48.20
2019-06-01T16:36:49.149Z,48.60
2019-06-01T16:39:19.699Z,48.20
2019-06-01T16:41:51.774Z,48.20
2019-06-01T16:44:22.729Z,48.50
2019-06-01T16:46:53.466Z,48.70
2019-06-01T16:49:27.143Z,48.80
2019-06-01T16:51:58.765Z,48.60
2019-06-01T16:54:29.459Z,48.50
2019-06-01T16:57:00.161Z,48.80
2019-06-01T16:59:30.599Z,48.50
2019-06-01T17:02:01.139Z,48.80
2019-06-01T17:04:33.536Z,49.30
2019-06-01T17:07:05.641Z,49.80
2019-06-01T17:09:36.165Z,49.90
2019-06-01T17:12:07.235Z,50.00
2019-06-01T17:14:37.828Z,50.20
2019-06-01T17:17:08.154Z,50.50
2019-06-01T17:19:38.893Z,50.50
2019-06-01T17:22:11.073Z,50.90
2019-06-01T17:24:41.930Z,51.30
2019-06-01T17:27:12.179Z,51.30
2019-06-01T17:29:42.684Z,51.60
2019-06-01T17:32:23.616Z,51.50
2019-06-01T17:34:45.142Z,51.60
2019-06-01T17:37:20.460Z,51.50
2019-06-01T17:39:50.769Z,51.40
2019-06-01T17:42:21.278Z,51.50
2019-06-01T17:44:51.715Z,51.60
2019-06-01T17:47:22.252Z,51.60
2019-06-01T17:49:52.722Z,51.60
2019-06-01T17:52:23.372Z,51.40
2019-06-01T17:54:53.609Z,51.40
2019-06-01T17:57:24.120Z,51.50
2019-06-01T17:59:54.397Z,51.40
2019-06-01T18:02:24.864Z,51.50
2019-06-01T18:04:55.136Z,51.60
2019-06-01T18:07:25.943Z,51.50
2019-06-01T18:09:56.408Z,51.30
2019-06-01T18:12:26.783Z,51.10
2019-06-01T18:14:57.470Z,50.90
2019-06-01T18:17:28.076Z,51.10
2019-06-01T18:19:58.417Z,51.30
2019-06-01T18:22:29.247Z,51.00
2019-06-01T18:24:59.729Z,51.30
2019-06-01T18:27:30.279Z,51.60
2019-06-01T18:30:00.758Z,51.70
2019-06-01T18:32:31.347Z,51.90
2019-06-01T18:35:02.955Z,52.10
2019-06-01T18:37:33.637Z,52.20
2019-06-01T18:40:05.510Z,52.20
2019-06-01T18:42:36.982Z,52.50
2019-06-01T18:45:09.711Z,52.50
2019-06-01T18:47:40.857Z,52.60
2019-06-01T18:50:16.156Z,53.00
2019-06-01T18:52:44.848Z,52.80
2019-06-01T18:55:16.742Z,53.00
2019-06-01T18:57:50.565Z,53.10
2019-06-01T19:00:22.468Z,53.20
2019-06-01T19:02:53.409Z,53.20
2019-06-01T19:05:23.990Z,53.50
2019-06-01T19:07:54.697Z,53.60
2019-06-01T19:10:25.045Z,53.90
2019-06-01T19:12:55.801Z,54.00
2019-06-01T19:15:28.813Z,54.10
2019-06-01T19:17:58.621Z,54.00
2019-06-01T19:20:33.030Z,54.40
2019-06-01T19:23:01.576Z,54.40
2019-06-01T19:25:31.767Z,54.60
2019-06-01T19:28:02.180Z,54.50
2019-06-01T19:30:37.841Z,54.70
2019-06-01T19:33:13.579Z,54.90
2019-06-01T19:35:42.479Z,54.80
2019-06-01T19:38:13.404Z,55.00
2019-06-01T19:40:44.155Z,55.00
2019-06-01T19:43:15.671Z,55.40
2019-06-01T19:45:46.530Z,56.10
2019-06-01T19:48:18.624Z,55.80
2019-06-01T19:50:49.247Z,56.00
2019-06-01T19:53:19.935Z,56.40
2019-06-01T19:55:50.284Z,56.80
2019-06-01T19:58:20.767Z,56.40
2019-06-01T20:00:51.751Z,56.50
2019-06-01T20:03:23.861Z,56.70
2019-06-01T20:05:54.449Z,57.20
2019-06-01T20:08:24.656Z,57.00
2019-06-01T20:10:55.324Z,57.30
2019-06-01T20:13:25.594Z,57.20
2019-06-01T20:15:56.324Z,57.90
2019-06-01T20:18:26.790Z,57.50
2019-06-01T20:20:57.301Z,57.00
2019-06-01T20:23:27.638Z,57.20
2019-06-01T20:25:58.560Z,57.80
2019-06-01T20:28:28.843Z,58.20
2019-06-01T20:31:11.821Z,58.70
2019-06-01T20:33:42.821Z,58.50
2019-06-01T20:36:13.983Z,59.30
2019-06-01T20:38:44.642Z,59.90
2019-06-01T20:41:16.853Z,59.80
2019-06-01T20:43:47.246Z,59.60
2019-06-01T20:46:18.863Z,59.90
2019-06-01T20:48:49.518Z,60.30
2019-06-01T20:51:20.981Z,60.80
2019-06-01T20:53:51.362Z,60.40
2019-06-01T20:56:21.726Z,60.40
2019-06-01T20:58:52.200Z,59.70
2019-06-01T21:01:23.946Z,59.50
2019-06-01T21:03:54.498Z,59.90
2019-06-01T21:06:25.029Z,60.00
2019-06-01T21:08:56.083Z,60.60
2019-06-01T21:11:26.405Z,60.00
2019-06-01T21:13:56.713Z,60.50
2019-06-01T21:16:27.420Z,62.00
2019-06-01T21:18:58.525Z,64.00
2019-06-01T21:21:29.180Z,62.70
2019-06-01T21:23:59.473Z,62.70
2019-06-01T21:26:30.075Z,63.30
2019-06-01T21:29:00.340Z,64.90
2019-06-01T21:31:30.612Z,64.50
2019-06-01T21:34:00.723Z,62.90
2019-06-01T21:36:31.653Z,64.00
2019-06-01T21:39:02.354Z,63.60
2019-06-01T21:41:32.658Z,63.20
2019-06-01T21:44:03.135Z,62.50
2019-06-01T21:46:33.491Z,62.40
2019-06-01T21:49:03.757Z,63.90
2019-06-01T21:51:33.970Z,64.10
2019-06-01T21:54:04.380Z,63.00
2019-06-01T21:56:34.583Z,63.80
2019-06-01T21:59:05.362Z,64.40
2019-06-01T22:01:35.723Z,65.00
2019-06-01T22:04:06.306Z,64.40
2019-06-01T22:06:37.051Z,66.20
2019-06-01T22:09:08.539Z,66.20
2019-06-01T22:11:39.225Z,66.90
2019-06-01T22:14:09.602Z,66.50
2019-06-01T22:16:39.886Z,66.80
2019-06-01T22:19:11.530Z,66.90
2019-06-01T22:21:41.825Z,68.10
2019-06-01T22:24:12.232Z,68.10
2019-06-01T22:26:42.796Z,66.70
2019-06-01T22:29:13.141Z,67.10
2019-06-01T22:31:44.207Z,66.50
2019-06-01T22:34:15.467Z,67.00
2019-06-01T22:36:45.869Z,67.10
2019-06-01T22:39:16.291Z,67.70
2019-06-01T22:41:46.485Z,68.50
2019-06-01T22:44:16.671Z,68.10
2019-06-01T22:46:46.885Z,67.40
2019-06-01T22:49:17.248Z,65.50
2019-06-01T22:51:47.556Z,67.20
2019-06-01T22:54:18.326Z,66.90
2019-06-01T22:56:48.733Z,68.80
2019-06-01T22:59:20.365Z,66.60
2019-06-01T23:01:51.373Z,66.20
2019-06-01T23:04:22.658Z,67.70
2019-06-01T23:06:53.571Z,70.00
2019-06-01T23:09:25.413Z,69.30
2019-06-01T23:11:55.718Z,67.90
2019-06-01T23:14:27.320Z,69.60
2019-06-01T23:16:57.551Z,68.80
2019-06-01T23:19:28.091Z,69.30
2019-06-01T23:21:58.347Z,69.70
2019-06-01T23:24:28.699Z,68.30
2019-06-01T23:26:58.915Z,69.10
2019-06-01T23:29:30.135Z,69.90
2019-06-01T23:32:00.614Z,69.30
2019-06-01T23:34:31.179Z,68.40
2019-06-01T23:37:01.424Z,70.30
2019-06-01T23:39:32.988Z,71.90
2019-06-01T23:42:03.874Z,72.60
2019-06-01T23:44:35.150Z,73.60
2019-06-01T23:47:05.759Z,72.90
2019-06-01T23:49:36.044Z,70.50
2019-06-01T23:52:06.566Z,70.40
2019-06-01T23:54:37.090Z,73.40
2019-06-01T23:57:07.474Z,73.40
2019-06-01T23:59:37.825Z,71.70
